sensor_id;sensor_type;location;lat;lon;timestamp;pressure;altitude;pressure_sealevel;temperature;humidity
75013;BME280;63567;49.956;20.130;2023-10-08T00:01:03;96655.25;;;17.04;81.50
75013;BME280;63567;49.956;20.130;2023-10-08T00:03:28;96647.53;;;17.02;80.96
75013;BME280;63567;49.956;20.130;2023-10-08T00:05:54;96628.38;;;16.89;80.60
75013;BME280;63567;49.956;20.130;2023-10-08T00:08:20;96627.22;;;16.84;80.70
75013;BME280;63567;49.956;20.130;2023-10-08T00:10:46;96639.44;;;16.97;80.78
75013;BME280;63567;49.956;20.130;2023-10-08T00:13:13;96625.13;;;16.87;80.64
75013;BME280;63567;49.956;20.130;2023-10-08T00:15:41;96638.41;;;16.98;80.70
75013;BME280;63567;49.956;20.130;2023-10-08T00:18:15;96656.19;;;16.98;80.71
75013;BME280;63567;49.956;20.130;2023-10-08T00:20:41;96625.63;;;16.83;80.76
75013;BME280;63567;49.956;20.130;2023-10-08T00:23:20;96648.22;;;16.98;80.60
75013;BME280;63567;49.956;20.130;2023-10-08T00:25:46;96650.66;;;16.99;80.75
75013;BME280;63567;49.956;20.130;2023-10-08T00:28:12;96625.72;;;16.89;80.73
75013;BME280;63567;49.956;20.130;2023-10-08T00:30:42;96652.28;;;17.00;81.12
75013;BME280;63567;49.956;20.130;2023-10-08T00:33:08;96644.75;;;16.97;81.34
75013;BME280;63567;49.956;20.130;2023-10-08T00:35:41;96654.94;;;17.00;81.45
75013;BME280;63567;49.956;20.130;2023-10-08T00:38:08;96653.31;;;16.99;81.69
75013;BME280;63567;49.956;20.130;2023-10-08T00:40:41;96660.25;;;17.00;82.04
75013;BME280;63567;49.956;20.130;2023-10-08T00:43:11;96638.94;;;16.83;82.04
75013;BME280;63567;49.956;20.130;2023-10-08T00:45:37;96665.81;;;16.99;82.23
75013;BME280;63567;49.956;20.130;2023-10-08T00:48:09;96666.72;;;17.04;82.85
75013;BME280;63567;49.956;20.130;2023-10-08T00:50:41;96656.19;;;16.98;83.08
75013;BME280;63567;49.956;20.130;2023-10-08T00:53:12;96677.91;;;17.07;83.69
75013;BME280;63567;49.956;20.130;2023-10-08T00:55:47;96666.72;;;17.04;84.05
75013;BME280;63567;49.956;20.130;2023-10-08T00:58:19;96660.00;;;17.02;84.40
75013;BME280;63567;49.956;20.130;2023-10-08T01:00:51;96668.81;;;17.02;84.38
75013;BME280;63567;49.956;20.130;2023-10-08T01:03:22;96658.88;;;16.98;84.64
75013;BME280;63567;49.956;20.130;2023-10-08T01:05:47;96667.34;;;16.95;84.32
75013;BME280;63567;49.956;20.130;2023-10-08T01:08:14;96667.25;;;16.90;84.38
75013;BME280;63567;49.956;20.130;2023-10-08T01:10:47;96663.19;;;16.87;84.36
75013;BME280;63567;49.956;20.130;2023-10-08T01:13:13;96668.66;;;16.80;84.68
75013;BME280;63567;49.956;20.130;2023-10-08T01:15:44;96664.28;;;16.74;84.45
75013;BME280;63567;49.956;20.130;2023-10-08T01:18:10;96657.47;;;16.67;84.58
75013;BME280;63567;49.956;20.130;2023-10-08T01:20:44;96656.53;;;16.61;84.42
75013;BME280;63567;49.956;20.130;2023-10-08T01:23:12;96667.75;;;16.63;84.55
75013;BME280;63567;49.956;20.130;2023-10-08T01:25:49;96668.47;;;16.58;84.39
75013;BME280;63567;49.956;20.130;2023-10-08T01:28:21;96670.44;;;16.51;84.65
75013;BME280;63567;49.956;20.130;2023-10-08T01:30:55;96639.16;;;16.30;84.75
75013;BME280;63567;49.956;20.130;2023-10-08T01:33:22;96673.94;;;16.40;84.97
75013;BME280;63567;49.956;20.130;2023-10-08T01:35:49;96681.34;;;16.38;84.89
75013;BME280;63567;49.956;20.130;2023-10-08T01:38:14;96650.63;;;16.18;84.80
75013;BME280;63567;49.956;20.130;2023-10-08T01:40:41;96680.91;;;16.29;84.67
75013;BME280;63567;49.956;20.130;2023-10-08T01:43:07;96691.97;;;16.26;84.22
75013;BME280;63567;49.956;20.130;2023-10-08T01:45:37;96659.44;;;16.07;84.32
75013;BME280;63567;49.956;20.130;2023-10-08T01:48:07;96682.66;;;16.12;83.96
75013;BME280;63567;49.956;20.130;2023-10-08T01:50:35;96688.19;;;16.10;83.64
75013;BME280;63567;49.956;20.130;2023-10-08T01:53:01;96692.34;;;16.06;83.76
75013;BME280;63567;49.956;20.130;2023-10-08T01:55:26;96661.84;;;15.85;83.55
75013;BME280;63567;49.956;20.130;2023-10-08T01:57:51;96682.53;;;15.95;83.20
75013;BME280;63567;49.956;20.130;2023-10-08T02:00:17;96683.91;;;15.86;83.30
75013;BME280;63567;49.956;20.130;2023-10-08T02:02:46;96688.66;;;15.84;82.91
75013;BME280;63567;49.956;20.130;2023-10-08T02:05:11;96687.09;;;15.64;82.54
75013;BME280;63567;49.956;20.130;2023-10-08T02:07:40;96696.44;;;15.67;82.65
75013;BME280;63567;49.956;20.130;2023-10-08T02:10:05;96698.41;;;15.59;82.99
75013;BME280;63567;49.956;20.130;2023-10-08T02:12:32;96688.13;;;15.51;82.87
75013;BME280;63567;49.956;20.130;2023-10-08T02:14:57;96668.78;;;15.32;82.87
75013;BME280;63567;49.956;20.130;2023-10-08T02:17:22;96672.94;;;15.28;82.95
75013;BME280;63567;49.956;20.130;2023-10-08T02:19:48;96693.72;;;15.31;82.99
75013;BME280;63567;49.956;20.130;2023-10-08T02:22:13;96701.31;;;15.28;82.44
75013;BME280;63567;49.956;20.130;2023-10-08T02:24:39;96706.34;;;15.17;82.31
75013;BME280;63567;49.956;20.130;2023-10-08T02:27:05;96707.25;;;15.11;82.43
75013;BME280;63567;49.956;20.130;2023-10-08T02:29:31;96692.34;;;14.98;82.19
75013;BME280;63567;49.956;20.130;2023-10-08T02:31:57;96686.38;;;14.85;82.33
75013;BME280;63567;49.956;20.130;2023-10-08T02:34:24;96699.56;;;14.91;82.40
75013;BME280;63567;49.956;20.130;2023-10-08T02:36:49;96679.06;;;14.68;82.09
75013;BME280;63567;49.956;20.130;2023-10-08T02:39:15;96706.88;;;14.77;82.33
75013;BME280;63567;49.956;20.130;2023-10-08T02:41:48;96717.34;;;14.72;82.19
75013;BME280;63567;49.956;20.130;2023-10-08T02:44:14;96724.56;;;14.65;82.47
75013;BME280;63567;49.956;20.130;2023-10-08T02:46:44;96713.22;;;14.58;82.84
75013;BME280;63567;49.956;20.130;2023-10-08T02:49:15;96716.53;;;14.53;82.73
75013;BME280;63567;49.956;20.130;2023-10-08T02:51:45;96703.03;;;14.36;82.66
75013;BME280;63567;49.956;20.130;2023-10-08T02:54:11;96732.78;;;14.38;82.82
75013;BME280;63567;49.956;20.130;2023-10-08T02:56:50;96735.06;;;14.35;82.87
75013;BME280;63567;49.956;20.130;2023-10-08T02:59:32;96732.69;;;14.27;83.23
75013;BME280;63567;49.956;20.130;2023-10-08T03:02:06;96722.38;;;14.18;83.37
75013;BME280;63567;49.956;20.130;2023-10-08T03:04:40;96698.09;;;14.03;83.44
75013;BME280;63567;49.956;20.130;2023-10-08T03:07:05;96717.97;;;14.12;83.67
75013;BME280;63567;49.956;20.130;2023-10-08T03:09:37;96701.22;;;13.93;83.56
75013;BME280;63567;49.956;20.130;2023-10-08T03:12:06;96741.47;;;14.02;83.66
75013;BME280;63567;49.956;20.130;2023-10-08T03:14:35;96743.38;;;13.95;83.51
75013;BME280;63567;49.956;20.130;2023-10-08T03:17:13;96750.34;;;13.89;83.30
75013;BME280;63567;49.956;20.130;2023-10-08T03:19:44;96709.59;;;13.65;83.23
75013;BME280;63567;49.956;20.130;2023-10-08T03:22:10;96736.41;;;13.75;83.42
75013;BME280;63567;49.956;20.130;2023-10-08T03:24:36;96725.44;;;13.72;83.48
75013;BME280;63567;49.956;20.130;2023-10-08T03:27:01;96727.69;;;13.68;83.61
75013;BME280;63567;49.956;20.130;2023-10-08T03:29:40;96717.97;;;13.62;83.40
75013;BME280;63567;49.956;20.130;2023-10-08T03:32:07;96715.00;;;13.52;83.73
75013;BME280;63567;49.956;20.130;2023-10-08T03:34:38;96708.75;;;13.40;83.65
75013;BME280;63567;49.956;20.130;2023-10-08T03:37:07;96729.50;;;13.43;83.87
75013;BME280;63567;49.956;20.130;2023-10-08T03:39:33;96739.69;;;13.39;84.24
75013;BME280;63567;49.956;20.130;2023-10-08T03:42:27;96746.44;;;13.35;84.29
75013;BME280;63567;49.956;20.130;2023-10-08T03:44:59;96746.28;;;13.30;84.21
75013;BME280;63567;49.956;20.130;2023-10-08T03:47:34;96755.81;;;13.31;84.35
75013;BME280;63567;49.956;20.130;2023-10-08T03:50:04;96762.97;;;13.30;84.60
75013;BME280;63567;49.956;20.130;2023-10-08T03:52:36;96762.34;;;13.28;84.55
75013;BME280;63567;49.956;20.130;2023-10-08T03:55:06;96773.09;;;13.27;84.87
75013;BME280;63567;49.956;20.130;2023-10-08T03:57:52;96781.69;;;13.22;85.08
75013;BME280;63567;49.956;20.130;2023-10-08T04:00:24;96792.69;;;13.19;84.82
75013;BME280;63567;49.956;20.130;2023-10-08T04:02:57;96814.25;;;13.16;84.68
75013;BME280;63567;49.956;20.130;2023-10-08T04:05:32;96806.19;;;13.04;84.88
75013;BME280;63567;49.956;20.130;2023-10-08T04:08:09;96829.75;;;13.12;84.74
75013;BME280;63567;49.956;20.130;2023-10-08T04:10:49;96838.72;;;13.05;84.77
75013;BME280;63567;49.956;20.130;2023-10-08T04:13:34;96833.88;;;13.02;84.91
75013;BME280;63567;49.956;20.130;2023-10-08T04:16:04;96817.63;;;12.85;84.89
75013;BME280;63567;49.956;20.130;2023-10-08T04:18:29;96818.06;;;12.82;84.77
75013;BME280;63567;49.956;20.130;2023-10-08T04:20:55;96846.69;;;12.91;84.81
75013;BME280;63567;49.956;20.130;2023-10-08T04:23:30;96853.22;;;12.89;84.84
75013;BME280;63567;49.956;20.130;2023-10-08T04:25:55;96842.84;;;12.81;84.67
75013;BME280;63567;49.956;20.130;2023-10-08T04:28:21;96811.81;;;12.56;84.86
75013;BME280;63567;49.956;20.130;2023-10-08T04:30:47;96860.56;;;12.80;84.81
75013;BME280;63567;49.956;20.130;2023-10-08T04:33:13;96855.66;;;12.77;85.06
75013;BME280;63567;49.956;20.130;2023-10-08T04:35:41;96857.69;;;12.75;85.05
75013;BME280;63567;49.956;20.130;2023-10-08T04:38:18;96874.19;;;12.70;84.94
75013;BME280;63567;49.956;20.130;2023-10-08T04:40:44;96865.06;;;12.53;84.92
75013;BME280;63567;49.956;20.130;2023-10-08T04:43:23;96899.00;;;12.63;85.00
75013;BME280;63567;49.956;20.130;2023-10-08T04:45:58;96867.09;;;12.38;84.99
75013;BME280;63567;49.956;20.130;2023-10-08T04:48:24;96909.59;;;12.56;85.09
75013;BME280;63567;49.956;20.130;2023-10-08T04:50:51;96920.34;;;12.54;85.22
75013;BME280;63567;49.956;20.130;2023-10-08T04:53:28;96904.50;;;12.48;85.43
75013;BME280;63567;49.956;20.130;2023-10-08T04:55:58;96906.34;;;12.47;85.47
75013;BME280;63567;49.956;20.130;2023-10-08T04:58:27;96910.41;;;12.43;85.37
75013;BME280;63567;49.956;20.130;2023-10-08T05:00:59;96919.13;;;12.37;85.41
75013;BME280;63567;49.956;20.130;2023-10-08T05:03:48;96925.44;;;12.36;85.60
75013;BME280;63567;49.956;20.130;2023-10-08T05:06:28;96931.28;;;12.31;85.52
75013;BME280;63567;49.956;20.130;2023-10-08T05:08:59;96928.03;;;12.23;85.57
75013;BME280;63567;49.956;20.130;2023-10-08T05:11:35;96944.50;;;12.18;85.60
75013;BME280;63567;49.956;20.130;2023-10-08T05:14:16;96954.25;;;12.18;85.86
75013;BME280;63567;49.956;20.130;2023-10-08T05:16:58;96954.44;;;12.16;85.74
75013;BME280;63567;49.956;20.130;2023-10-08T05:19:50;96960.72;;;12.08;85.48
75013;BME280;63567;49.956;20.130;2023-10-08T05:22:41;96977.78;;;11.99;85.54
75013;BME280;63567;49.956;20.130;2023-10-08T05:25:09;96987.09;;;11.95;85.75
75013;BME280;63567;49.956;20.130;2023-10-08T05:27:42;96978.09;;;11.83;85.84
75013;BME280;63567;49.956;20.130;2023-10-08T05:30:19;97002.69;;;11.90;85.83
75013;BME280;63567;49.956;20.130;2023-10-08T05:32:52;96996.56;;;11.83;86.18
75013;BME280;63567;49.956;20.130;2023-10-08T05:35:36;97001.22;;;11.81;85.93
75013;BME280;63567;49.956;20.130;2023-10-08T05:38:05;96967.03;;;11.59;86.10
75013;BME280;63567;49.956;20.130;2023-10-08T05:40:40;96998.38;;;11.76;85.85
75013;BME280;63567;49.956;20.130;2023-10-08T05:43:28;96982.91;;;11.72;85.94
75013;BME280;63567;49.956;20.130;2023-10-08T05:46:06;97006.88;;;11.71;86.28
75013;BME280;63567;49.956;20.130;2023-10-08T05:48:44;96999.94;;;11.70;86.26
75013;BME280;63567;49.956;20.130;2023-10-08T05:51:26;97008.81;;;11.62;86.59
75013;BME280;63567;49.956;20.130;2023-10-08T05:54:13;97043.38;;;11.67;86.14
75013;BME280;63567;49.956;20.130;2023-10-08T05:57:01;97053.09;;;11.60;86.33
75013;BME280;63567;49.956;20.130;2023-10-08T05:59:43;97052.84;;;11.55;86.49
75013;BME280;63567;49.956;20.130;2023-10-08T06:02:38;97052.44;;;11.51;87.23
75013;BME280;63567;49.956;20.130;2023-10-08T06:05:04;97065.22;;;11.55;86.75
75013;BME280;63567;49.956;20.130;2023-10-08T06:07:40;97071.50;;;11.54;87.03
75013;BME280;63567;49.956;20.130;2023-10-08T06:10:28;97065.94;;;11.42;87.07
75013;BME280;63567;49.956;20.130;2023-10-08T06:13:03;97078.81;;;11.51;87.26
75013;BME280;63567;49.956;20.130;2023-10-08T06:15:35;97069.34;;;11.36;87.29
75013;BME280;63567;49.956;20.130;2023-10-08T06:18:14;97095.72;;;11.36;86.84
75013;BME280;63567;49.956;20.130;2023-10-08T06:20:41;97103.31;;;11.45;86.78
75013;BME280;63567;49.956;20.130;2023-10-08T06:23:10;97095.19;;;11.47;87.30
75013;BME280;63567;49.956;20.130;2023-10-08T06:25:37;97093.41;;;11.47;87.13
75013;BME280;63567;49.956;20.130;2023-10-08T06:28:16;97104.94;;;11.46;87.15
75013;BME280;63567;49.956;20.130;2023-10-08T06:30:49;97122.78;;;11.44;87.28
75013;BME280;63567;49.956;20.130;2023-10-08T06:33:14;97119.28;;;11.37;87.17
75013;BME280;63567;49.956;20.130;2023-10-08T06:35:40;97115.38;;;11.33;87.57
75013;BME280;63567;49.956;20.130;2023-10-08T06:38:09;97140.16;;;11.32;87.57
75013;BME280;63567;49.956;20.130;2023-10-08T06:40:35;97137.63;;;11.24;87.68
75013;BME280;63567;49.956;20.130;2023-10-08T06:43:04;97148.59;;;11.27;87.34
75013;BME280;63567;49.956;20.130;2023-10-08T06:45:50;97142.47;;;11.20;87.44
75013;BME280;63567;49.956;20.130;2023-10-08T06:48:20;97130.03;;;11.14;87.38
75013;BME280;63567;49.956;20.130;2023-10-08T06:50:47;97159.34;;;11.26;87.06
75013;BME280;63567;49.956;20.130;2023-10-08T06:53:13;97146.25;;;11.11;87.33
75013;BME280;63567;49.956;20.130;2023-10-08T06:55:44;97169.91;;;11.26;87.51
75013;BME280;63567;49.956;20.130;2023-10-08T06:58:09;97164.19;;;11.22;87.44
75013;BME280;63567;49.956;20.130;2023-10-08T07:00:37;97152.78;;;11.15;87.51
75013;BME280;63567;49.956;20.130;2023-10-08T07:03:04;97169.63;;;11.21;87.49
75013;BME280;63567;49.956;20.130;2023-10-08T07:05:29;97171.91;;;11.24;87.61
75013;BME280;63567;49.956;20.130;2023-10-08T07:07:59;97182.19;;;11.19;88.16
75013;BME280;63567;49.956;20.130;2023-10-08T07:10:24;97180.56;;;11.18;87.83
75013;BME280;63567;49.956;20.130;2023-10-08T07:12:49;97189.94;;;11.20;88.16
75013;BME280;63567;49.956;20.130;2023-10-08T07:15:17;97195.59;;;11.17;88.31
75013;BME280;63567;49.956;20.130;2023-10-08T07:17:49;97176.84;;;11.12;87.94
75013;BME280;63567;49.956;20.130;2023-10-08T07:20:16;97168.81;;;11.20;87.97
75013;BME280;63567;49.956;20.130;2023-10-08T07:22:47;97185.47;;;11.21;88.16
75013;BME280;63567;49.956;20.130;2023-10-08T07:25:21;97182.53;;;11.09;88.33
75013;BME280;63567;49.956;20.130;2023-10-08T07:27:46;97196.00;;;11.21;88.30
75013;BME280;63567;49.956;20.130;2023-10-08T07:30:12;97195.66;;;11.24;88.70
75013;BME280;63567;49.956;20.130;2023-10-08T07:32:38;97199.72;;;11.26;88.60
75013;BME280;63567;49.956;20.130;2023-10-08T07:35:06;97209.06;;;11.29;88.86
75013;BME280;63567;49.956;20.130;2023-10-08T07:37:48;97208.09;;;11.30;88.77
75013;BME280;63567;49.956;20.130;2023-10-08T07:40:13;97212.72;;;11.28;88.99
75013;BME280;63567;49.956;20.130;2023-10-08T07:42:40;97215.16;;;11.29;88.84
75013;BME280;63567;49.956;20.130;2023-10-08T07:45:05;97208.91;;;11.30;89.04
75013;BME280;63567;49.956;20.130;2023-10-08T07:47:31;97180.75;;;11.16;89.13
75013;BME280;63567;49.956;20.130;2023-10-08T07:49:56;97216.41;;;11.34;89.39
75013;BME280;63567;49.956;20.130;2023-10-08T07:52:24;97226.97;;;11.34;89.45
75013;BME280;63567;49.956;20.130;2023-10-08T07:54:49;97233.50;;;11.38;89.86
75013;BME280;63567;49.956;20.130;2023-10-08T07:57:15;97210.91;;;11.28;89.86
75013;BME280;63567;49.956;20.130;2023-10-08T07:59:53;97237.47;;;11.48;89.90
75013;BME280;63567;49.956;20.130;2023-10-08T08:02:41;97234.66;;;11.50;89.96
75013;BME280;63567;49.956;20.130;2023-10-08T08:05:07;97237.69;;;11.54;89.82
75013;BME280;63567;49.956;20.130;2023-10-08T08:07:32;97237.97;;;11.59;90.01
75013;BME280;63567;49.956;20.130;2023-10-08T08:09:58;97246.13;;;11.64;89.74
75013;BME280;63567;49.956;20.130;2023-10-08T08:12:24;97246.41;;;11.69;90.06
75013;BME280;63567;49.956;20.130;2023-10-08T08:14:57;97249.09;;;11.76;89.84
75013;BME280;63567;49.956;20.130;2023-10-08T08:17:23;97239.91;;;11.71;89.86
75013;BME280;63567;49.956;20.130;2023-10-08T08:19:49;97248.56;;;11.87;90.04
75013;BME280;63567;49.956;20.130;2023-10-08T08:22:17;97210.44;;;11.68;89.66
75013;BME280;63567;49.956;20.130;2023-10-08T08:24:56;97260.47;;;11.98;89.22
75013;BME280;63567;49.956;20.130;2023-10-08T08:27:30;97246.25;;;11.99;89.22
75013;BME280;63567;49.956;20.130;2023-10-08T08:29:59;97241.53;;;11.94;89.16
75013;BME280;63567;49.956;20.130;2023-10-08T08:32:41;97277.84;;;12.13;88.94
75013;BME280;63567;49.956;20.130;2023-10-08T08:35:09;97260.56;;;12.11;88.71
75013;BME280;63567;49.956;20.130;2023-10-08T08:37:35;97277.69;;;12.22;88.74
75013;BME280;63567;49.956;20.130;2023-10-08T08:40:05;97265.44;;;12.14;88.51
75013;BME280;63567;49.956;20.130;2023-10-08T08:42:46;97286.91;;;12.32;88.39
75013;BME280;63567;49.956;20.130;2023-10-08T08:45:13;97274.53;;;12.33;88.08
75013;BME280;63567;49.956;20.130;2023-10-08T08:47:43;97280.03;;;12.38;87.87
75013;BME280;63567;49.956;20.130;2023-10-08T08:50:10;97280.28;;;12.43;87.78
75013;BME280;63567;49.956;20.130;2023-10-08T08:52:40;97284.97;;;12.48;87.70
75013;BME280;63567;49.956;20.130;2023-10-08T08:55:06;97287.84;;;12.53;87.44
75013;BME280;63567;49.956;20.130;2023-10-08T08:57:39;97288.47;;;12.55;87.34
75013;BME280;63567;49.956;20.130;2023-10-08T09:00:07;97249.81;;;12.47;86.83
75013;BME280;63567;49.956;20.130;2023-10-08T09:02:40;97266.53;;;12.54;86.49
75013;BME280;63567;49.956;20.130;2023-10-08T09:05:06;97290.38;;;12.68;85.97
75013;BME280;63567;49.956;20.130;2023-10-08T09:08:04;97295.69;;;12.74;85.80
75013;BME280;63567;49.956;20.130;2023-10-08T09:10:32;97295.09;;;12.79;85.33
75013;BME280;63567;49.956;20.130;2023-10-08T09:13:06;97292.72;;;12.84;85.24
75013;BME280;63567;49.956;20.130;2023-10-08T09:15:33;97285.22;;;12.94;85.52
75013;BME280;63567;49.956;20.130;2023-10-08T09:17:58;97294.66;;;13.10;85.67
75013;BME280;63567;49.956;20.130;2023-10-08T09:20:30;97279.00;;;13.15;85.78
75013;BME280;63567;49.956;20.130;2023-10-08T09:23:07;97302.53;;;13.52;85.82
75013;BME280;63567;49.956;20.130;2023-10-08T09:25:36;97290.94;;;13.60;85.22
75013;BME280;63567;49.956;20.130;2023-10-08T09:28:02;97308.50;;;13.94;84.78
75013;BME280;63567;49.956;20.130;2023-10-08T09:30:31;97317.06;;;14.16;83.44
75013;BME280;63567;49.956;20.130;2023-10-08T09:32:58;97318.50;;;14.32;81.76
75013;BME280;63567;49.956;20.130;2023-10-08T09:35:24;97310.97;;;14.49;80.74
75013;BME280;63567;49.956;20.130;2023-10-08T09:37:50;97316.06;;;14.70;80.15
75013;BME280;63567;49.956;20.130;2023-10-08T09:40:16;97317.22;;;14.94;79.72
75013;BME280;63567;49.956;20.130;2023-10-08T09:42:46;97320.38;;;15.23;79.35
75013;BME280;63567;49.956;20.130;2023-10-08T09:45:13;97335.97;;;15.51;78.72
75013;BME280;63567;49.956;20.130;2023-10-08T09:47:42;97339.94;;;15.74;77.46
75013;BME280;63567;49.956;20.130;2023-10-08T09:50:10;97343.50;;;15.93;76.21
75013;BME280;63567;49.956;20.130;2023-10-08T09:53:00;97351.41;;;16.06;74.54
75013;BME280;63567;49.956;20.130;2023-10-08T09:55:27;97355.19;;;16.17;72.90
75013;BME280;63567;49.956;20.130;2023-10-08T09:57:52;97357.56;;;16.32;72.54
75013;BME280;63567;49.956;20.130;2023-10-08T10:00:21;97354.72;;;16.52;72.15
75013;BME280;63567;49.956;20.130;2023-10-08T10:02:57;97366.59;;;16.74;71.13
75013;BME280;63567;49.956;20.130;2023-10-08T10:05:29;97364.72;;;17.00;70.58
75013;BME280;63567;49.956;20.130;2023-10-08T10:07:57;97369.53;;;17.28;69.58
75013;BME280;63567;49.956;20.130;2023-10-08T10:10:30;97359.47;;;17.49;66.99
75013;BME280;63567;49.956;20.130;2023-10-08T10:12:58;97377.66;;;17.70;65.14
75013;BME280;63567;49.956;20.130;2023-10-08T10:15:24;97380.06;;;17.90;64.38
75013;BME280;63567;49.956;20.130;2023-10-08T10:17:50;97367.84;;;18.13;62.55
75013;BME280;63567;49.956;20.130;2023-10-08T10:20:16;97379.72;;;18.29;61.34
75013;BME280;63567;49.956;20.130;2023-10-08T10:22:41;97377.41;;;18.44;61.45
75013;BME280;63567;49.956;20.130;2023-10-08T10:25:08;97364.78;;;18.51;59.46
75013;BME280;63567;49.956;20.130;2023-10-08T10:30:33;97382.91;;;19.08;60.59
75013;BME280;63567;49.956;20.130;2023-10-08T10:33:02;97397.75;;;19.39;59.59
75013;BME280;63567;49.956;20.130;2023-10-08T10:35:31;97392.78;;;19.60;56.82
75013;BME280;63567;49.956;20.130;2023-10-08T10:37:58;97386.63;;;19.71;55.50
75013;BME280;63567;49.956;20.130;2023-10-08T10:40:29;97392.94;;;19.94;55.18
75013;BME280;63567;49.956;20.130;2023-10-08T10:43:04;97396.88;;;20.20;54.46
75013;BME280;63567;49.956;20.130;2023-10-08T10:45:31;97394.81;;;20.39;54.93
75013;BME280;63567;49.956;20.130;2023-10-08T10:48:08;97398.66;;;20.60;54.13
75013;BME280;63567;49.956;20.130;2023-10-08T10:50:48;97395.50;;;20.80;52.67
75013;BME280;63567;49.956;20.130;2023-10-08T10:53:34;97402.44;;;20.98;51.87
75013;BME280;63567;49.956;20.130;2023-10-08T10:56:11;97405.41;;;21.18;51.41
75013;BME280;63567;49.956;20.130;2023-10-08T10:58:43;97400.31;;;21.39;51.00
75013;BME280;63567;49.956;20.130;2023-10-08T11:01:09;97398.66;;;21.54;50.99
75013;BME280;63567;49.956;20.130;2023-10-08T11:03:52;97401.13;;;21.83;52.06
75013;BME280;63567;49.956;20.130;2023-10-08T11:06:19;97391.69;;;22.03;51.91
75013;BME280;63567;49.956;20.130;2023-10-08T11:08:51;97407.06;;;22.34;50.34
75013;BME280;63567;49.956;20.130;2023-10-08T11:11:25;97402.84;;;22.44;48.83
75013;BME280;63567;49.956;20.130;2023-10-08T11:13:52;97414.94;;;22.46;45.16
75013;BME280;63567;49.956;20.130;2023-10-08T11:16:23;97414.88;;;22.36;46.35
75013;BME280;63567;49.956;20.130;2023-10-08T11:18:49;97418.91;;;22.39;45.94
75013;BME280;63567;49.956;20.130;2023-10-08T11:21:16;97418.16;;;22.43;45.77
75013;BME280;63567;49.956;20.130;2023-10-08T11:23:44;97414.16;;;22.51;46.44
75013;BME280;63567;49.956;20.130;2023-10-08T11:26:18;97404.88;;;22.64;46.31
75013;BME280;63567;49.956;20.130;2023-10-08T11:28:44;97418.97;;;22.81;45.20
75013;BME280;63567;49.956;20.130;2023-10-08T11:31:13;97412.63;;;22.92;46.53
75013;BME280;63567;49.956;20.130;2023-10-08T11:33:43;97418.41;;;23.11;44.33
75013;BME280;63567;49.956;20.130;2023-10-08T11:36:19;97428.34;;;23.06;41.45
75013;BME280;63567;49.956;20.130;2023-10-08T11:38:46;97436.75;;;22.87;42.27
75013;BME280;63567;49.956;20.130;2023-10-08T11:41:16;97433.72;;;22.73;41.91
75013;BME280;63567;49.956;20.130;2023-10-08T11:43:53;97437.50;;;22.77;43.44
75013;BME280;63567;49.956;20.130;2023-10-08T11:46:30;97443.25;;;22.91;41.38
75013;BME280;63567;49.956;20.130;2023-10-08T11:49:07;97445.78;;;23.03;43.96
75013;BME280;63567;49.956;20.130;2023-10-08T11:51:34;97413.88;;;23.12;43.40
75013;BME280;63567;49.956;20.130;2023-10-08T11:54:03;97438.78;;;23.45;43.42
75013;BME280;63567;49.956;20.130;2023-10-08T11:56:32;97418.63;;;23.52;42.26
75013;BME280;63567;49.956;20.130;2023-10-08T11:58:59;97444.34;;;23.81;41.71
75013;BME280;63567;49.956;20.130;2023-10-08T12:01:25;97449.22;;;23.89;42.14
75013;BME280;63567;49.956;20.130;2023-10-08T12:03:52;97451.91;;;23.94;41.62
75013;BME280;63567;49.956;20.130;2023-10-08T12:06:18;97448.72;;;24.02;41.70
75013;BME280;63567;49.956;20.130;2023-10-08T12:08:47;97448.47;;;24.09;41.07
75013;BME280;63567;49.956;20.130;2023-10-08T12:11:13;97462.47;;;24.11;41.10
75013;BME280;63567;49.956;20.130;2023-10-08T12:13:42;97452.25;;;24.13;40.18
75013;BME280;63567;49.956;20.130;2023-10-08T12:16:14;97445.50;;;24.10;40.27
75013;BME280;63567;49.956;20.130;2023-10-08T12:18:49;97462.00;;;24.34;40.06
75013;BME280;63567;49.956;20.130;2023-10-08T12:21:18;97476.84;;;24.52;40.47
75013;BME280;63567;49.956;20.130;2023-10-08T12:23:43;97459.63;;;24.74;40.23
75013;BME280;63567;49.956;20.130;2023-10-08T12:26:10;97477.69;;;24.94;39.17
75013;BME280;63567;49.956;20.130;2023-10-08T12:28:40;97474.44;;;25.12;39.19
75013;BME280;63567;49.956;20.130;2023-10-08T12:31:07;97476.59;;;25.31;38.80
75013;BME280;63567;49.956;20.130;2023-10-08T12:33:35;97479.00;;;25.48;38.25
75013;BME280;63567;49.956;20.130;2023-10-08T12:36:00;97479.50;;;25.65;37.68
75013;BME280;63567;49.956;20.130;2023-10-08T12:38:36;97488.59;;;25.85;38.35
75013;BME280;63567;49.956;20.130;2023-10-08T12:41:01;97475.91;;;26.00;37.45
75013;BME280;63567;49.956;20.130;2023-10-08T12:43:33;97474.50;;;26.13;37.70
75013;BME280;63567;49.956;20.130;2023-10-08T12:46:00;97479.28;;;26.27;37.76
75013;BME280;63567;49.956;20.130;2023-10-08T12:48:27;97487.56;;;26.40;36.51
75013;BME280;63567;49.956;20.130;2023-10-08T12:50:54;97485.66;;;26.46;36.46
75013;BME280;63567;49.956;20.130;2023-10-08T12:53:24;97485.84;;;26.60;36.43
75013;BME280;63567;49.956;20.130;2023-10-08T12:55:53;97486.56;;;26.71;36.25
75013;BME280;63567;49.956;20.130;2023-10-08T12:58:20;97488.63;;;26.84;35.67
75013;BME280;63567;49.956;20.130;2023-10-08T13:00:48;97498.59;;;26.94;35.52
75013;BME280;63567;49.956;20.130;2023-10-08T13:03:21;97493.06;;;27.04;35.20
75013;BME280;63567;49.956;20.130;2023-10-08T13:05:51;97479.00;;;27.07;35.74
75013;BME280;63567;49.956;20.130;2023-10-08T13:08:28;97469.88;;;26.98;35.40
75013;BME280;63567;49.956;20.130;2023-10-08T13:10:55;97489.75;;;27.12;34.78